Time;durP1;ratioP1;P1;durP2;ratioP2;P2;SDS_P1;SDS_P2;PMS_P1;PMS_P2;Temp;Humidity;BMP_temperature;BMP_pressure;BME280_temperature;BME280_humidity;BME280_pressure;Samples;Min_cycle;Max_cycle;Signal;HPM_P1;HPM_P2
2023/05/30 00:00:55;;;;;;;11.45;3.40;;;;;;;12.62;67.94;99992.66;5104850;28;20130;-63
2023/05/30 00:03:24;;;;;;;12.55;3.40;;;;;;;12.63;68.20;99999.69;5098831;28;20064;-64
2023/05/30 00:05:52;;;;;;;10.32;3.45;;;;;;;12.51;68.14;99997.00;5096633;28;20543;-64
2023/05/30 00:08:20;;;;;;;15.02;3.30;;;;;;;12.45;68.76;100005.19;5099672;28;20101;-64
2023/05/30 00:10:47;;;;;;;9.68;3.03;;;;;;;12.52;68.01;100000.50;5102245;28;20040;-65
2023/05/30 00:13:14;;;;;;;10.80;3.22;;;;;;;12.48;68.06;100002.03;5100254;28;20043;-64
2023/05/30 00:15:41;;;;;;;10.88;3.45;;;;;;;12.46;67.69;100007.66;5101866;28;20091;-63
2023/05/30 00:18:08;;;;;;;12.65;3.55;;;;;;;12.34;68.02;100003.34;5102744;28;20088;-63
2023/05/30 00:20:35;;;;;;;15.75;3.40;;;;;;;12.32;67.19;99997.38;5105379;28;20040;-63
2023/05/30 00:23:02;;;;;;;16.58;3.33;;;;;;;12.28;68.08;100007.78;5102180;28;20043;-63
2023/05/30 00:25:32;;;;;;;12.40;3.50;;;;;;;12.15;67.91;100008.81;5098218;28;20105;-64
2023/05/30 00:27:59;;;;;;;13.02;3.42;;;;;;;12.14;67.81;100006.41;5104697;28;20050;-64
2023/05/30 00:30:26;;;;;;;12.32;3.30;;;;;;;12.07;68.41;100006.50;5097813;28;20115;-63
2023/05/30 00:32:54;;;;;;;16.77;4.00;;;;;;;11.98;68.85;100013.25;5095848;28;20409;-63
2023/05/30 00:35:21;;;;;;;12.52;3.60;;;;;;;11.92;69.31;100011.50;5096548;28;20443;-63
2023/05/30 00:37:48;;;;;;;10.10;3.25;;;;;;;12.01;69.17;100004.75;5090604;28;20146;-63
2023/05/30 00:40:15;;;;;;;14.55;3.53;;;;;;;11.89;68.88;100009.28;5100122;28;20073;-63
2023/05/30 00:42:43;;;;;;;11.52;3.15;;;;;;;11.82;69.56;100004.81;5100340;28;20044;-64
2023/05/30 00:45:10;;;;;;;12.20;3.10;;;;;;;11.75;69.70;100003.28;5101219;28;20482;-64
2023/05/30 00:47:37;;;;;;;15.52;3.80;;;;;;;11.82;70.13;99995.94;5098382;28;20122;-62
2023/05/30 00:50:05;;;;;;;16.02;3.28;;;;;;;11.71;69.75;99997.56;5096555;28;20075;-63
2023/05/30 00:52:32;;;;;;;12.65;3.03;;;;;;;11.82;70.42;99988.69;5097122;28;20074;-64
2023/05/30 00:55:02;;;;;;;9.98;3.20;;;;;;;11.60;69.27;99983.03;5099856;28;20054;-64
2023/05/30 00:57:29;;;;;;;13.43;3.90;;;;;;;11.67;69.98;99991.00;5096886;28;20047;-63
2023/05/30 00:59:58;;;;;;;14.57;2.92;;;;;;;11.60;69.56;99992.97;5094506;28;20119;-64
2023/05/30 01:02:25;;;;;;;13.60;3.10;;;;;;;11.62;70.29;99994.38;5097388;28;20044;-62
2023/05/30 01:04:52;;;;;;;14.10;3.10;;;;;;;11.63;69.58;100001.41;5100027;28;20070;-65
2023/05/30 01:07:19;;;;;;;11.25;3.08;;;;;;;11.55;69.40;99996.34;5092667;28;20044;-63
2023/05/30 01:09:46;;;;;;;14.85;3.42;;;;;;;11.67;70.31;99999.06;5094467;28;20052;-63
2023/05/30 01:12:17;;;;;;;10.82;3.30;;;;;;;11.59;69.06;99994.84;5093918;28;20044;-63
2023/05/30 01:14:46;;;;;;;13.10;3.40;;;;;;;11.53;68.90;100003.84;5094368;28;20499;-63
2023/05/30 01:17:22;;;;;;;12.10;3.30;;;;;;;11.40;68.47;100006.69;5096009;28;20048;-63
2023/05/30 01:20:04;;;;;;;11.07;3.10;;;;;;;11.45;70.70;100014.88;5097327;28;20058;-64
2023/05/30 01:22:36;;;;;;;11.95;3.20;;;;;;;11.28;69.09;100005.84;5101290;28;20050;-63
2023/05/30 01:25:14;;;;;;;15.05;3.70;;;;;;;11.24;69.70;100013.53;5099177;28;20119;-65
2023/05/30 01:27:49;;;;;;;15.25;3.70;;;;;;;11.19;70.71;100006.16;5096768;28;20044;-65
2023/05/30 01:30:17;;;;;;;12.23;3.10;;;;;;;11.11;68.93;100008.34;5081613;28;20056;-64
2023/05/30 01:32:47;;;;;;;7.53;2.90;;;;;;;11.13;69.44;100006.25;5104551;28;20078;-64
2023/05/30 01:35:22;;;;;;;13.10;4.22;;;;;;;10.96;69.62;100003.38;5095440;28;20047;-64
2023/05/30 01:37:51;;;;;;;14.95;3.55;;;;;;;10.96;68.79;100006.88;5113501;28;20036;-64
2023/05/30 01:40:28;;;;;;;12.52;3.40;;;;;;;10.82;68.83;100005.41;5098200;28;20056;-64
2023/05/30 01:42:59;;;;;;;9.45;3.05;;;;;;;10.83;68.64;100011.56;5096602;28;20501;-64
2023/05/30 01:45:31;;;;;;;8.77;2.78;;;;;;;10.91;69.42;100008.59;5105688;28;20055;-63
2023/05/30 01:48:00;;;;;;;11.85;3.50;;;;;;;10.84;68.59;100011.38;5099104;28;20050;-64
2023/05/30 01:50:30;;;;;;;11.88;3.00;;;;;;;10.72;69.02;100008.59;5094065;28;20044;-64
2023/05/30 01:52:59;;;;;;;10.18;3.47;;;;;;;10.60;69.46;100009.59;5099168;28;20051;-64
2023/05/30 01:55:26;;;;;;;12.80;2.95;;;;;;;10.56;69.43;100023.44;5095179;28;20042;-62
2023/05/30 01:57:54;;;;;;;9.60;3.63;;;;;;;10.53;69.57;100017.69;5096401;28;20043;-63
2023/05/30 02:00:25;;;;;;;16.70;3.83;;;;;;;10.55;69.30;100016.41;5098204;28;20050;-63
2023/05/30 02:02:53;;;;;;;14.32;3.00;;;;;;;10.49;69.76;100014.66;5099777;28;20046;-63
2023/05/30 02:05:20;;;;;;;8.63;2.92;;;;;;;10.48;70.71;100014.84;5100464;28;20056;-63
2023/05/30 02:07:47;;;;;;;12.50;3.20;;;;;;;10.50;69.73;100016.28;5088043;28;20040;-63
2023/05/30 02:10:15;;;;;;;12.48;3.45;;;;;;;10.48;69.60;100010.34;5103033;28;20039;-63
2023/05/30 02:12:49;;;;;;;10.60;3.40;;;;;;;10.36;70.71;100014.78;5103130;28;20050;-64
2023/05/30 02:15:16;;;;;;;12.20;2.90;;;;;;;10.28;70.02;100023.94;5099262;28;20125;-64
2023/05/30 02:17:43;;;;;;;12.48;3.13;;;;;;;10.28;70.38;100031.13;5096787;28;20399;-62
2023/05/30 02:20:12;;;;;;;11.73;3.10;;;;;;;10.17;70.44;100023.81;5101170;28;20184;-63
2023/05/30 02:22:39;;;;;;;8.48;2.60;;;;;;;10.11;70.67;100026.31;5101835;28;20059;-64
2023/05/30 02:25:10;;;;;;;8.18;3.08;;;;;;;10.06;70.80;100023.50;5100826;28;20043;-62
2023/05/30 02:27:37;;;;;;;13.05;3.70;;;;;;;10.12;71.74;100027.94;5097913;28;20048;-63
2023/05/30 02:30:05;;;;;;;12.73;3.30;;;;;;;10.06;69.98;100023.50;5102492;28;20149;-63
2023/05/30 02:32:33;;;;;;;14.27;2.90;;;;;;;9.95;70.54;100021.50;5097176;28;21441;-63
2023/05/30 02:35:00;;;;;;;12.95;2.90;;;;;;;9.91;70.82;100020.31;5103007;28;20417;-64
2023/05/30 02:37:29;;;;;;;18.83;3.05;;;;;;;9.92;71.33;100019.28;5099902;28;20130;-64
2023/05/30 02:39:56;;;;;;;12.88;3.10;;;;;;;9.96;71.72;100023.16;5104055;27;20134;-63
2023/05/30 02:42:23;;;;;;;11.00;2.55;;;;;;;9.85;71.24;100026.53;5096128;28;20375;-62
2023/05/30 02:44:51;;;;;;;10.43;3.05;;;;;;;9.77;71.56;100027.63;5104090;28;20051;-62
2023/05/30 02:47:18;;;;;;;15.30;3.83;;;;;;;9.84;71.69;100030.25;5105323;28;20051;-63
2023/05/30 02:49:45;;;;;;;11.25;2.90;;;;;;;9.71;71.90;100036.53;5100266;28;20109;-63
2023/05/30 02:52:14;;;;;;;9.85;3.65;;;;;;;9.72;72.47;100030.94;5102617;28;20054;-63
2023/05/30 02:54:54;;;;;;;11.15;2.75;;;;;;;9.79;72.06;100020.22;5099892;28;20063;-63
2023/05/30 02:57:42;;;;;;;15.73;3.20;;;;;;;9.74;72.11;100027.25;5097755;28;20044;-63
2023/05/30 03:00:27;;;;;;;11.93;3.25;;;;;;;9.55;72.43;100027.16;5106304;28;20054;-63
2023/05/30 03:03:09;;;;;;;;;;;;;;;9.57;73.31;100025.09;5099184;28;20164;-63
2023/05/30 03:05:38;;;;;;;8.68;2.88;;;;;;;9.61;72.76;100026.31;5099115;28;19920;-63
2023/05/30 03:08:07;;;;;;;9.32;2.95;;;;;;;9.54;72.89;100027.41;5102777;28;20067;-63
2023/05/30 03:10:35;;;;;;;11.40;2.83;;;;;;;9.46;73.19;100033.78;5097177;28;20055;-64
2023/05/30 03:13:02;;;;;;;9.52;2.38;;;;;;;9.43;73.68;100028.88;5097626;28;20549;-63
2023/05/30 03:15:30;;;;;;;14.90;2.92;;;;;;;9.43;73.63;100039.59;5096992;28;20055;-63
2023/05/30 03:17:58;;;;;;;8.15;2.95;;;;;;;9.24;74.83;100031.47;5104153;28;20043;-63
2023/05/30 03:20:28;;;;;;;11.13;3.13;;;;;;;9.26;74.58;100029.41;5097956;28;20085;-63
2023/05/30 03:22:56;;;;;;;12.63;3.13;;;;;;;9.26;75.24;100034.75;5096940;28;20093;-63
2023/05/30 03:25:23;;;;;;;11.18;3.53;;;;;;;9.12;75.65;100043.88;5101308;28;20048;-62
2023/05/30 03:27:52;;;;;;;9.60;2.60;;;;;;;9.19;75.41;100050.00;5100577;28;20047;-64
2023/05/30 03:30:25;;;;;;;12.50;3.00;;;;;;;9.11;76.80;100042.25;5098468;28;20044;-64
2023/05/30 03:32:56;;;;;;;8.00;2.97;;;;;;;9.24;75.53;100047.50;5094483;28;20093;-62
2023/05/30 03:35:23;;;;;;;16.35;3.00;;;;;;;9.33;75.43;100044.59;5100948;28;20075;-63
2023/05/30 03:37:51;;;;;;;10.18;2.70;;;;;;;9.47;74.53;100048.84;5082490;28;20077;-63
2023/05/30 03:40:18;;;;;;;14.40;3.05;;;;;;;9.47;74.47;100055.00;5095896;28;20051;-63
2023/05/30 03:42:46;;;;;;;12.52;3.33;;;;;;;9.60;73.92;100051.41;5099933;28;20036;-63
2023/05/30 03:45:14;;;;;;;13.95;2.70;;;;;;;9.74;72.94;100054.03;5097328;28;20058;-63
2023/05/30 03:47:41;;;;;;;12.88;2.97;;;;;;;9.68;73.44;100056.53;5099119;28;20043;-64
2023/05/30 03:50:09;;;;;;;16.45;3.17;;;;;;;9.70;74.02;100056.28;5105273;28;20131;-63
2023/05/30 03:52:36;;;;;;;10.50;2.75;;;;;;;9.49;73.90;100054.78;5104223;28;20043;-66
2023/05/30 03:55:03;;;;;;;9.25;2.92;;;;;;;9.80;73.32;100055.81;5096834;28;20147;-62
2023/05/30 03:57:30;;;;;;;11.07;2.67;;;;;;;10.03;72.21;100057.91;5098211;28;20150;-62
2023/05/30 03:59:57;;;;;;;10.40;2.65;;;;;;;10.27;71.89;100062.44;5101486;28;20413;-63
2023/05/30 04:02:27;;;;;;;17.80;3.28;;;;;;;10.14;72.21;100058.03;5096365;28;20529;-63
2023/05/30 04:04:55;;;;;;;10.20;2.78;;;;;;;10.33;70.38;100064.28;5095758;28;20050;-63
2023/05/30 04:07:22;;;;;;;13.00;2.95;;;;;;;10.26;70.63;100065.31;5095699;28;20048;-64
2023/05/30 04:09:51;;;;;;;9.77;3.10;;;;;;;10.29;71.00;100071.13;5095462;28;20040;-62
2023/05/30 04:12:18;;;;;;;12.57;2.92;;;;;;;10.29;70.49;100067.63;5099953;28;20047;-63
2023/05/30 04:14:45;;;;;;;16.25;3.08;;;;;;;10.54;69.60;100078.31;5105069;28;20710;-63
2023/05/30 04:17:14;;;;;;;12.55;3.22;;;;;;;10.67;69.15;100080.84;5093664;28;20056;-62
2023/05/30 04:19:42;;;;;;;18.33;3.30;;;;;;;10.97;67.80;100072.06;5099789;28;20139;-63
2023/05/30 04:22:09;;;;;;;15.10;3.15;;;;;;;10.87;67.59;100080.63;5105152;28;20043;-64
2023/05/30 04:24:36;;;;;;;35.55;5.03;;;;;;;11.17;67.67;100082.56;5097070;28;20081;-63
2023/05/30 04:27:04;;;;;;;23.70;3.35;;;;;;;11.55;64.24;100081.44;5095328;28;20399;-63
2023/05/30 04:29:31;;;;;;;26.65;4.20;;;;;;;12.14;62.72;100082.44;5098080;28;20055;-62
2023/05/30 04:31:58;;;;;;;28.48;3.83;;;;;;;12.34;61.50;100076.72;5094992;28;20122;-62
2023/05/30 04:34:25;;;;;;;21.85;3.70;;;;;;;13.11;58.33;100081.91;5095541;28;20490;-63
2023/05/30 04:36:56;;;;;;;26.30;3.72;;;;;;;13.15;57.20;100082.25;5099838;28;20044;-63
2023/05/30 04:39:23;;;;;;;24.55;3.50;;;;;;;13.03;57.47;100078.75;5103241;28;20032;-63
2023/05/30 04:41:54;;;;;;;16.80;3.25;;;;;;;12.98;56.88;100087.56;5101949;28;20999;-62
2023/05/30 04:44:23;;;;;;;15.35;2.83;;;;;;;12.89;57.49;100088.97;5093683;28;20558;-63
2023/05/30 04:46:50;;;;;;;15.40;3.60;;;;;;;12.83;56.54;100090.75;5104692;28;20040;-63
2023/05/30 04:49:17;;;;;;;21.35;3.65;;;;;;;13.39;55.81;100099.19;5102376;28;20043;-63
2023/05/30 04:51:44;;;;;;;24.88;5.38;;;;;;;13.11;55.08;100097.25;5102548;28;20041;-63
2023/05/30 04:54:13;;;;;;;18.33;3.78;;;;;;;13.66;54.36;100096.72;5100326;28;20039;-62
2023/05/30 04:56:41;;;;;;;25.23;4.40;;;;;;;14.05;54.28;100091.47;5103714;28;20039;-63
2023/05/30 04:59:12;;;;;;;21.33;3.53;;;;;;;14.28;53.86;100100.44;5105599;28;20052;-63
2023/05/30 05:01:41;;;;;;;24.45;5.10;;;;;;;14.39;51.88;100100.38;5104154;28;20413;-63
2023/05/30 05:04:08;;;;;;;30.67;3.63;;;;;;;12.43;55.36;100098.69;5098747;28;20048;-62
2023/05/30 05:06:36;;;;;;;21.85;3.58;;;;;;;13.64;53.99;100096.16;5103242;28;20138;-62
2023/05/30 05:09:03;;;;;;;17.15;4.13;;;;;;;15.60;48.50;100096.03;5099847;28;20486;-64
2023/05/30 05:11:31;;;;;;;16.80;4.35;;;;;;;15.59;48.83;100101.69;5098765;28;20130;-64
2023/05/30 05:13:58;;;;;;;15.02;3.25;;;;;;;14.96;49.82;100103.91;5097812;28;20136;-63
2023/05/30 05:16:25;;;;;;;19.63;3.63;;;;;;;14.54;50.48;100109.81;5098095;28;20066;-64
2023/05/30 05:18:52;;;;;;;22.88;3.25;;;;;;;15.60;48.52;100111.41;5092488;28;20128;-63
2023/05/30 05:21:19;;;;;;;25.55;3.15;;;;;;;15.79;47.66;100110.03;5098880;28;20068;-63
2023/05/30 05:23:46;;;;;;;22.30;3.53;;;;;;;15.07;49.78;100109.19;5099320;28;20040;-64
2023/05/30 05:26:13;;;;;;;17.08;3.50;;;;;;;15.19;48.70;100108.25;5092532;28;20143;-62
2023/05/30 05:28:42;;;;;;;21.10;3.13;;;;;;;16.42;45.99;100121.09;5097446;28;20040;-62
2023/05/30 05:31:09;;;;;;;21.83;3.50;;;;;;;16.56;46.62;100111.47;5090747;28;20520;-63
2023/05/30 05:33:36;;;;;;;26.38;3.80;;;;;;;17.64;43.97;100112.81;5095308;28;20036;-64
2023/05/30 05:36:03;;;;;;;20.15;3.72;;;;;;;17.36;44.86;100122.22;5092086;28;20373;-63
2023/05/30 05:38:31;;;;;;;16.75;3.55;;;;;;;18.03;42.87;100115.06;5100461;28;20070;-63
2023/05/30 05:40:59;;;;;;;20.88;3.28;;;;;;;19.14;41.21;100112.47;5095390;27;20563;-63
2023/05/30 05:43:26;;;;;;;14.93;3.17;;;;;;;19.58;40.04;100116.38;5099920;28;20064;-63
2023/05/30 05:45:55;;;;;;;18.00;3.10;;;;;;;19.78;39.40;100121.72;5094171;27;20035;-63
2023/05/30 05:48:22;;;;;;;15.52;3.13;;;;;;;16.92;44.76;100127.97;5114971;27;20051;-63
2023/05/30 05:50:49;;;;;;;19.08;3.63;;;;;;;19.00;42.25;100127.75;5102989;28;20135;-63
2023/05/30 05:53:16;;;;;;;18.70;3.67;;;;;;;20.10;39.72;100125.03;5104680;28;20052;-64
2023/05/30 05:55:44;;;;;;;19.92;3.78;;;;;;;18.52;42.38;100122.66;5100108;28;20229;-64
2023/05/30 05:58:11;;;;;;;19.75;4.20;;;;;;;19.44;40.97;100126.22;5104253;28;20432;-61
2023/05/30 06:00:38;;;;;;;25.02;3.60;;;;;;;18.19;43.18;100124.03;5097841;28;20036;-64
2023/05/30 06:03:07;;;;;;;27.48;3.60;;;;;;;18.19;42.83;100126.72;5096835;28;20101;-61
2023/05/30 06:05:34;;;;;;;18.42;3.60;;;;;;;17.48;44.08;100118.47;5100437;28;20048;-64
2023/05/30 06:08:01;;;;;;;18.65;3.95;;;;;;;18.43;43.37;100126.22;5101504;28;20778;-62
2023/05/30 06:10:28;;;;;;;13.80;3.80;;;;;;;17.95;43.56;100120.22;5100496;28;20054;-64
2023/05/30 06:12:56;;;;;;;14.88;3.00;;;;;;;18.10;43.44;100125.66;5094762;28;20046;-63
2023/05/30 06:15:23;;;;;;;14.00;3.35;;;;;;;17.78;43.41;100131.28;5099499;28;20731;-65
2023/05/30 06:17:50;;;;;;;13.40;3.20;;;;;;;16.10;46.75;100132.78;5098387;28;20147;-63
2023/05/30 06:20:19;;;;;;;12.40;3.20;;;;;;;16.53;47.02;100130.94;5105807;28;20054;-64
2023/05/30 06:22:46;;;;;;;14.40;3.08;;;;;;;18.49;43.09;100122.38;5098201;28;20067;-63
2023/05/30 06:25:16;;;;;;;11.55;2.95;;;;;;;19.18;41.15;100135.28;5096986;28;20059;-63
2023/05/30 06:27:43;;;;;;;12.18;3.08;;;;;;;16.97;45.18;100136.13;5099266;28;20121;-63
2023/05/30 06:30:11;;;;;;;12.30;3.33;;;;;;;17.40;45.32;100136.88;5096656;28;20044;-63
2023/05/30 06:32:38;;;;;;;11.27;2.85;;;;;;;18.45;43.45;100126.75;5100534;28;20126;-63
2023/05/30 06:35:06;;;;;;;12.07;3.10;;;;;;;18.54;43.21;100135.94;5100113;28;20071;-64
2023/05/30 06:37:34;;;;;;;11.65;2.92;;;;;;;19.05;43.28;100141.31;5131409;27;20048;-63
2023/05/30 06:40:02;;;;;;;9.13;2.70;;;;;;;18.21;43.95;100143.56;5095179;28;20047;-63
2023/05/30 06:42:29;;;;;;;11.70;3.00;;;;;;;17.39;45.58;100143.34;5101714;28;20032;-63
2023/05/30 06:44:58;;;;;;;12.00;2.90;;;;;;;18.00;43.88;100141.94;5105937;28;20036;-63
2023/05/30 06:47:25;;;;;;;9.93;2.75;;;;;;;17.97;43.93;100142.44;5104677;28;20044;-63
2023/05/30 06:49:52;;;;;;;11.90;2.90;;;;;;;18.37;42.99;100146.28;5101797;28;20042;-63
2023/05/30 06:52:19;;;;;;;15.00;3.25;;;;;;;18.85;42.90;100153.06;5095130;28;21741;-63
2023/05/30 06:54:47;;;;;;;12.05;3.00;;;;;;;19.78;41.51;100158.97;5104530;28;20093;-63
2023/05/30 06:57:14;;;;;;;18.17;3.20;;;;;;;19.27;43.08;100151.00;5104790;28;20043;-64
2023/05/30 06:59:42;;;;;;;18.58;3.70;;;;;;;19.44;42.35;100147.97;5104269;28;20063;-64
2023/05/30 07:02:10;;;;;;;22.77;3.88;;;;;;;20.11;41.09;100148.44;5098650;28;20044;-62
2023/05/30 07:04:37;;;;;;;19.58;3.60;;;;;;;21.16;40.72;100149.63;5102571;28;20046;-64
2023/05/30 07:07:05;;;;;;;18.90;3.38;;;;;;;20.76;39.74;100159.88;5098789;28;20043;-62
2023/05/30 07:09:32;;;;;;;18.10;3.70;;;;;;;19.18;41.48;100151.59;5102201;28;20058;-63
2023/05/30 07:12:02;;;;;;;19.73;4.05;;;;;;;18.68;43.43;100153.31;5096456;28;20047;-64
2023/05/30 07:14:29;;;;;;;22.95;4.68;;;;;;;19.57;42.72;100145.47;5101436;28;20048;-64
2023/05/30 07:16:56;;;;;;;15.23;3.30;;;;;;;20.73;40.53;100149.56;5095315;28;20044;-62
2023/05/30 07:19:24;;;;;;;17.38;3.53;;;;;;;19.56;41.93;100145.72;5104658;28;20386;-62
2023/05/30 07:21:51;;;;;;;22.48;3.80;;;;;;;20.09;41.19;100147.88;5100027;28;20489;-62
2023/05/30 07:24:18;;;;;;;26.05;4.68;;;;;;;19.98;41.30;100147.97;5099888;28;20088;-64
2023/05/30 07:26:45;;;;;;;23.25;3.90;;;;;;;22.15;38.64;100143.41;5100913;28;20051;-64
2023/05/30 07:29:13;;;;;;;18.13;3.58;;;;;;;20.28;39.87;100135.22;5097490;28;20048;-61
2023/05/30 07:31:41;;;;;;;34.70;3.80;;;;;;;22.78;36.69;100138.53;5099816;28;20056;-64
2023/05/30 07:34:08;;;;;;;13.98;3.55;;;;;;;21.43;40.05;100154.53;5107724;28;20052;-64
2023/05/30 07:36:35;;;;;;;19.65;3.85;;;;;;;22.67;37.43;100148.06;5101638;28;20123;-62
2023/05/30 07:39:02;;;;;;;16.58;3.78;;;;;;;20.93;39.58;100148.53;5104817;28;20074;-64
2023/05/30 07:41:29;;;;;;;10.10;3.47;;;;;;;21.94;38.96;100144.81;5098513;28;20043;-62
2023/05/30 07:43:56;;;;;;;14.77;3.70;;;;;;;22.14;39.27;100141.78;5102798;28;20401;-62
2023/05/30 07:46:25;;;;;;;13.40;3.47;;;;;;;20.75;40.04;100146.56;5099874;28;20047;-64
2023/05/30 07:48:52;;;;;;;18.17;3.88;;;;;;;21.80;38.55;100146.69;5100867;28;20500;-64
2023/05/30 07:51:22;;;;;;;16.20;3.60;;;;;;;20.61;40.18;100144.47;5098344;28;20100;-64
2023/05/30 07:53:49;;;;;;;16.33;3.65;;;;;;;21.64;39.34;100144.19;5101600;28;20051;-62
2023/05/30 07:56:16;;;;;;;15.95;3.40;;;;;;;19.94;42.25;100137.91;5103093;28;20357;-63
2023/05/30 07:58:43;;;;;;;28.30;4.20;;;;;;;20.86;41.48;100134.44;5102768;28;20048;-63
2023/05/30 08:01:10;;;;;;;17.77;3.50;;;;;;;21.00;41.02;100146.28;5093048;28;20036;-62
2023/05/30 08:03:39;;;;;;;18.67;3.38;;;;;;;19.70;43.39;100154.13;5097488;28;20505;-62
2023/05/30 08:06:07;;;;;;;20.58;3.45;;;;;;;20.39;41.57;100146.84;5101647;28;20104;-62
2023/05/30 08:08:34;;;;;;;16.75;3.30;;;;;;;19.64;43.77;100142.41;5097372;28;20448;-62
2023/05/30 08:11:01;;;;;;;22.55;4.07;;;;;;;20.53;41.45;100141.56;5095544;28;20040;-62
2023/05/30 08:13:28;;;;;;;19.85;4.13;;;;;;;19.52;42.80;100142.78;5096087;28;20513;-62
2023/05/30 08:15:55;;;;;;;20.27;4.50;;;;;;;20.18;42.87;100141.56;5099254;28;20055;-62
2023/05/30 08:18:22;;;;;;;24.25;4.10;;;;;;;21.04;42.35;100136.44;5098579;28;20040;-62
2023/05/30 08:20:51;;;;;;;15.85;3.20;;;;;;;21.11;40.72;100136.88;5105348;28;20048;-62
2023/05/30 08:23:18;;;;;;;19.42;3.55;;;;;;;21.97;39.91;100134.13;5093674;28;20044;-62
2023/05/30 08:25:46;;;;;;;15.15;3.50;;;;;;;19.81;43.15;100137.47;5095306;28;20134;-62
2023/05/30 08:28:13;;;;;;;18.25;3.42;;;;;;;22.21;39.49;100135.97;5098890;28;20044;-62
2023/05/30 08:30:41;;;;;;;17.45;3.95;;;;;;;20.63;42.61;100142.28;5104281;28;20047;-62
2023/05/30 08:33:10;;;;;;;23.90;3.47;;;;;;;21.18;41.26;100141.19;5095486;28;20074;-62
2023/05/30 08:35:37;;;;;;;13.38;3.10;;;;;;;21.94;40.84;100128.44;5093268;28;20121;-62
2023/05/30 08:38:05;;;;;;;19.67;3.58;;;;;;;23.45;38.05;100130.66;5101755;28;20056;-62
2023/05/30 08:40:32;;;;;;;14.70;3.15;;;;;;;21.38;40.32;100145.56;5098494;28;20032;-62
2023/05/30 08:42:59;;;;;;;15.82;3.83;;;;;;;21.59;40.69;100136.06;5085357;28;20052;-62
2023/05/30 08:45:26;;;;;;;15.80;3.22;;;;;;;21.08;41.36;100137.47;5099943;28;20134;-62
2023/05/30 08:47:54;;;;;;;21.48;3.63;;;;;;;21.50;41.19;100140.53;5096646;28;20382;-62
2023/05/30 08:50:21;;;;;;;12.10;3.58;;;;;;;19.61;43.66;100143.00;5104055;27;20097;-62
2023/05/30 08:52:50;;;;;;;17.48;3.30;;;;;;;19.37;44.80;100137.41;5097900;28;20036;-64
2023/05/30 08:55:22;;;;;;;16.85;3.40;;;;;;;20.61;42.87;100138.22;5100307;28;20047;-62
2023/05/30 08:57:51;;;;;;;18.67;4.05;;;;;;;19.81;44.99;100142.09;5099013;28;20047;-62
2023/05/30 09:00:18;;;;;;;20.98;3.60;;;;;;;20.43;43.61;100137.81;5095816;28;20084;-62
2023/05/30 09:02:45;;;;;;;11.10;3.45;;;;;;;21.45;41.05;100135.16;5090169;28;20056;-62
2023/05/30 09:05:15;;;;;;;14.55;3.15;;;;;;;21.17;41.49;100129.47;5096409;28;20406;-62
2023/05/30 09:07:42;;;;;;;15.00;4.00;;;;;;;20.30;42.49;100138.47;5101897;28;20254;-62
2023/05/30 09:10:10;;;;;;;11.40;3.35;;;;;;;21.09;42.04;100128.19;5102279;28;20425;-62
2023/05/30 09:12:38;;;;;;;13.60;3.15;;;;;;;21.21;41.49;100125.03;5091655;28;20048;-62
2023/05/30 09:15:07;;;;;;;17.52;3.58;;;;;;;21.05;42.35;100121.69;5093544;28;20044;-62
2023/05/30 09:17:34;;;;;;;10.75;3.25;;;;;;;19.33;43.40;100130.91;5094617;28;20444;-63
2023/05/30 09:20:01;;;;;;;11.35;2.95;;;;;;;20.92;42.59;100127.84;5100609;28;20062;-63
2023/05/30 09:22:28;;;;;;;11.00;3.10;;;;;;;21.44;41.59;100118.00;5090900;28;20044;-63
2023/05/30 09:24:56;;;;;;;14.30;3.05;;;;;;;21.65;41.18;100123.16;5094395;28;20062;-63
2023/05/30 09:27:24;;;;;;;13.85;4.10;;;;;;;21.28;41.59;100120.03;5098218;28;20055;-62
2023/05/30 09:29:52;;;;;;;16.48;3.20;;;;;;;20.83;42.01;100114.03;5095587;28;20498;-63
2023/05/30 09:32:20;;;;;;;12.30;3.05;;;;;;;22.18;40.29;100120.97;5087709;28;20040;-63
2023/05/30 09:34:55;;;;;;;16.17;3.85;;;;;;;21.15;42.22;100120.78;5100692;28;20075;-63
2023/05/30 09:37:23;;;;;;;12.95;3.38;;;;;;;21.80;40.01;100119.41;5096759;28;20236;-62
2023/05/30 09:40:06;;;;;;;15.40;3.92;;;;;;;21.92;41.00;100123.28;5102437;28;20114;-62
2023/05/30 09:42:39;;;;;;;17.10;3.40;;;;;;;22.52;39.79;100119.88;5095793;28;20450;-63
2023/05/30 09:45:09;;;;;;;14.32;3.15;;;;;;;21.98;40.76;100121.28;5101621;28;20235;-63
2023/05/30 09:47:39;;;;;;;14.98;3.55;;;;;;;21.01;41.90;100125.28;5096105;28;20047;-62
2023/05/30 09:50:06;;;;;;;;;;;;;;;21.89;41.11;100128.50;5091760;28;20142;-62
2023/05/30 09:52:33;;;;;;;13.23;3.13;;;;;;;22.52;40.23;100125.34;5094255;28;20023;-62
2023/05/30 09:55:01;;;;;;;14.85;3.53;;;;;;;21.85;41.35;100116.59;5102488;28;20568;-63
2023/05/30 09:57:29;;;;;;;15.80;3.50;;;;;;;22.25;40.66;100111.63;5094875;28;20039;-62
2023/05/30 09:59:58;;;;;;;18.35;4.47;;;;;;;21.96;41.64;100120.78;5096248;28;20082;-62
2023/05/30 10:02:26;;;;;;;21.02;3.75;;;;;;;22.61;40.56;100112.63;5093155;28;20484;-62
2023/05/30 10:04:56;;;;;;;13.60;3.15;;;;;;;21.42;42.37;100120.19;5099503;28;20135;-62
2023/05/30 10:07:23;;;;;;;11.63;3.08;;;;;;;22.09;41.15;100106.38;5100130;28;20097;-65
2023/05/30 10:09:51;;;;;;;15.57;3.70;;;;;;;22.10;41.17;100097.06;5095988;28;20039;-63
2023/05/30 10:12:18;;;;;;;22.40;4.40;;;;;;;21.21;43.35;100107.88;5099016;28;20535;-63
2023/05/30 10:14:45;;;;;;;21.00;3.55;;;;;;;21.97;41.52;100100.56;5094555;28;20397;-62
2023/05/30 10:17:15;;;;;;;16.23;3.25;;;;;;;21.30;43.08;100106.13;5100188;28;20134;-62
2023/05/30 10:20:00;;;;;;;11.30;2.97;;;;;;;21.31;41.36;100108.56;5096003;28;20048;-63
2023/05/30 10:22:27;;;;;;;12.88;3.58;;;;;;;21.89;41.24;100101.22;5093870;28;20044;-62
2023/05/30 10:24:55;;;;;;;15.88;2.92;;;;;;;21.75;42.05;100096.53;5099189;28;20046;-62
2023/05/30 10:27:25;;;;;;;21.38;3.63;;;;;;;21.84;42.12;100087.66;5108901;28;20044;-63
2023/05/30 10:29:56;;;;;;;22.42;3.65;;;;;;;21.59;42.40;100103.34;5101327;28;20176;-62
2023/05/30 10:32:24;;;;;;;29.90;4.15;;;;;;;21.17;43.03;100090.47;5096842;28;20047;-62
2023/05/30 10:34:56;;;;;;;18.67;3.53;;;;;;;21.23;43.82;100089.31;5102506;28;20133;-62
2023/05/30 10:37:23;;;;;;;17.27;3.67;;;;;;;22.10;42.76;100088.88;5105433;28;20036;-62
2023/05/30 10:39:57;;;;;;;15.05;3.47;;;;;;;21.59;43.19;100086.97;5106351;28;20071;-61
2023/05/30 10:42:27;;;;;;;19.38;3.42;;;;;;;21.59;42.89;100076.06;5099989;28;20140;-62
2023/05/30 10:44:55;;;;;;;17.48;3.90;;;;;;;22.46;42.16;100076.56;5100653;28;20050;-61
2023/05/30 10:47:30;;;;;;;16.45;3.63;;;;;;;22.67;42.12;100071.56;5093800;28;20036;-62
2023/05/30 10:49:59;;;;;;;12.98;3.30;;;;;;;21.84;42.77;100065.84;5097129;28;20123;-62
2023/05/30 10:52:32;;;;;;;11.60;3.05;;;;;;;21.70;41.47;100065.78;5099847;28;20043;-64
2023/05/30 10:55:00;;;;;;;12.98;3.58;;;;;;;21.47;42.07;100056.59;5099372;28;20048;-63
2023/05/30 10:57:28;;;;;;;16.05;3.80;;;;;;;21.50;41.58;100064.97;5102788;28;20728;-63
2023/05/30 11:00:06;;;;;;;13.25;3.65;;;;;;;20.17;44.11;100062.94;5105014;28;20052;-63
2023/05/30 11:02:36;;;;;;;15.73;3.70;;;;;;;21.04;44.16;100059.28;5102194;28;20032;-62
2023/05/30 11:05:08;;;;;;;12.18;3.67;;;;;;;21.69;42.35;100054.06;5097448;28;20399;-63
2023/05/30 11:07:38;;;;;;;14.20;3.50;;;;;;;21.66;41.79;100042.94;5100815;28;20044;-62
2023/05/30 11:10:06;;;;;;;13.52;3.33;;;;;;;21.19;41.62;100048.22;5106645;28;20541;-62
2023/05/30 11:12:33;;;;;;;11.02;3.22;;;;;;;21.80;41.62;100051.19;5099034;28;20036;-62
2023/05/30 11:15:00;;;;;;;14.15;3.20;;;;;;;22.18;41.99;100036.31;5099372;28;20401;-62
2023/05/30 11:17:32;;;;;;;19.25;3.83;;;;;;;22.13;41.18;100047.34;5101347;28;20472;-62
2023/05/30 11:20:08;;;;;;;13.15;3.33;;;;;;;22.68;39.86;100032.19;5102459;28;20129;-62
2023/05/30 11:22:35;;;;;;;15.05;3.50;;;;;;;22.11;41.27;100027.72;5102986;28;20101;-62
2023/05/30 11:25:18;;;;;;;16.30;3.60;;;;;;;21.86;42.58;100031.69;5100368;28;20051;-62